sensor_id;sensor_type;location;lat;lon;timestamp;temperature;humidity
47514;DHT22;33951;51.988;5.910;2022-08-07T05:01:43;14.20;99.90
47514;DHT22;33951;51.988;5.910;2022-08-07T05:04:15;14.40;99.90
47514;DHT22;33951;51.988;5.910;2022-08-07T05:06:55;14.30;99.90
47514;DHT22;33951;51.988;5.910;2022-08-07T05:09:33;14.50;99.90
47514;DHT22;33951;51.988;5.910;2022-08-07T05:12:04;14.50;99.90
47514;DHT22;33951;51.988;5.910;2022-08-07T05:17:07;14.60;99.90
47514;DHT22;33951;51.988;5.910;2022-08-07T05:19:37;14.70;99.90
47514;DHT22;33951;51.988;5.910;2022-08-07T05:22:07;14.70;99.90
47514;DHT22;33951;51.988;5.910;2022-08-07T05:24:35;14.80;99.90
47514;DHT22;33951;51.988;5.910;2022-08-07T05:27:06;14.70;99.90
47514;DHT22;33951;51.988;5.910;2022-08-07T05:29:35;14.70;99.90
47514;DHT22;33951;51.988;5.910;2022-08-07T05:32:08;14.70;99.90
47514;DHT22;33951;51.988;5.910;2022-08-07T05:34:41;14.80;99.90
47514;DHT22;33951;51.988;5.910;2022-08-07T05:37:08;14.80;99.90
47514;DHT22;33951;51.988;5.910;2022-08-07T05:39:35;14.80;99.90
47514;DHT22;33951;51.988;5.910;2022-08-07T05:42:05;14.70;99.90
47514;DHT22;33951;51.988;5.910;2022-08-07T05:44:40;14.90;99.90
47514;DHT22;33951;51.988;5.910;2022-08-07T05:47:07;14.70;99.90
47514;DHT22;33951;51.988;5.910;2022-08-07T05:49:33;14.80;99.90
47514;DHT22;33951;51.988;5.910;2022-08-07T05:52:01;14.90;99.90
47514;DHT22;33951;51.988;5.910;2022-08-07T05:54:28;14.80;99.90
47514;DHT22;33951;51.988;5.910;2022-08-07T05:56:59;14.80;99.90
47514;DHT22;33951;51.988;5.910;2022-08-07T05:59:27;14.80;99.90
47514;DHT22;33951;51.988;5.910;2022-08-07T06:01:56;15.00;99.90
47514;DHT22;33951;51.988;5.910;2022-08-07T06:04:22;15.00;99.90
47514;DHT22;33951;51.988;5.910;2022-08-07T06:06:51;15.00;99.90
47514;DHT22;33951;51.988;5.910;2022-08-07T06:09:17;15.10;99.90
47514;DHT22;33951;51.988;5.910;2022-08-07T06:11:43;15.20;99.90
47514;DHT22;33951;51.988;5.910;2022-08-07T06:14:10;15.20;99.90
47514;DHT22;33951;51.988;5.910;2022-08-07T06:16:46;15.30;99.90
47514;DHT22;33951;51.988;5.910;2022-08-07T06:19:18;15.50;99.90
47514;DHT22;33951;51.988;5.910;2022-08-07T06:21:48;15.70;99.90
47514;DHT22;33951;51.988;5.910;2022-08-07T06:24:39;15.70;99.90
47514;DHT22;33951;51.988;5.910;2022-08-07T06:27:37;15.80;99.90
47514;DHT22;33951;51.988;5.910;2022-08-07T06:30:03;15.70;99.90
47514;DHT22;33951;51.988;5.910;2022-08-07T06:32:32;15.90;99.90
47514;DHT22;33951;51.988;5.910;2022-08-07T06:35:10;16.00;99.90
47514;DHT22;33951;51.988;5.910;2022-08-07T06:37:58;16.10;99.90
47514;DHT22;33951;51.988;5.910;2022-08-07T06:43:30;16.40;99.90
47514;DHT22;33951;51.988;5.910;2022-08-07T06:46:07;16.50;99.90
47514;DHT22;33951;51.988;5.910;2022-08-07T06:48:42;16.60;99.90
47514;DHT22;33951;51.988;5.910;2022-08-07T06:51:23;16.60;99.90
47514;DHT22;33951;51.988;5.910;2022-08-07T06:54:15;16.70;99.90
47514;DHT22;33951;51.988;5.910;2022-08-07T06:57:22;16.70;99.90
47514;DHT22;33951;51.988;5.910;2022-08-07T06:59:58;16.90;99.90
47514;DHT22;33951;51.988;5.910;2022-08-07T07:02:59;17.10;99.90
47514;DHT22;33951;51.988;5.910;2022-08-07T07:05:36;17.00;99.90
47514;DHT22;33951;51.988;5.910;2022-08-07T07:08:12;17.10;99.90
47514;DHT22;33951;51.988;5.910;2022-08-07T07:24:20;17.50;99.90
47514;DHT22;33951;51.988;5.910;2022-08-07T07:30:41;17.80;99.90
47514;DHT22;33951;51.988;5.910;2022-08-07T07:33:32;17.80;99.90
47514;DHT22;33951;51.988;5.910;2022-08-07T07:36:11;17.80;99.90
47514;DHT22;33951;51.988;5.910;2022-08-07T07:38:40;18.00;99.90
47514;DHT22;33951;51.988;5.910;2022-08-07T07:47:45;18.00;99.90
47514;DHT22;33951;51.988;5.910;2022-08-07T07:51:27;18.10;99.90
47514;DHT22;33951;51.988;5.910;2022-08-07T08:00:14;18.30;99.90
47514;DHT22;33951;51.988;5.910;2022-08-07T08:02:56;18.50;99.90
47514;DHT22;33951;51.988;5.910;2022-08-07T08:05:23;18.50;99.90
47514;DHT22;33951;51.988;5.910;2022-08-07T08:07:54;18.50;99.90
47514;DHT22;33951;51.988;5.910;2022-08-07T08:10:42;18.50;99.90
47514;DHT22;33951;51.988;5.910;2022-08-07T08:13:18;18.70;99.90
47514;DHT22;33951;51.988;5.910;2022-08-07T08:16:01;18.70;99.90
47514;DHT22;33951;51.988;5.910;2022-08-07T08:21:39;18.70;99.90
47514;DHT22;33951;51.988;5.910;2022-08-07T08:24:30;18.90;99.90
47514;DHT22;33951;51.988;5.910;2022-08-07T08:27:27;19.10;99.90
47514;DHT22;33951;51.988;5.910;2022-08-07T08:30:19;19.20;99.90
47514;DHT22;33951;51.988;5.910;2022-08-07T08:32:58;19.20;99.90
47514;DHT22;33951;51.988;5.910;2022-08-07T08:35:30;19.30;99.90
47514;DHT22;33951;51.988;5.910;2022-08-07T08:38:01;19.30;99.90
47514;DHT22;33951;51.988;5.910;2022-08-07T08:40:35;19.60;99.90
47514;DHT22;33951;51.988;5.910;2022-08-07T08:43:09;19.80;99.90
47514;DHT22;33951;51.988;5.910;2022-08-07T08:46:04;19.90;99.90
47514;DHT22;33951;51.988;5.910;2022-08-07T08:51:51;19.90;99.90
47514;DHT22;33951;51.988;5.910;2022-08-07T08:54:46;19.90;99.90
47514;DHT22;33951;51.988;5.910;2022-08-07T08:57:41;19.90;99.90
47514;DHT22;33951;51.988;5.910;2022-08-07T09:03:36;20.20;99.90
47514;DHT22;33951;51.988;5.910;2022-08-07T09:06:36;20.20;99.90
47514;DHT22;33951;51.988;5.910;2022-08-07T09:18:05;21.00;99.30
47514;DHT22;33951;51.988;5.910;2022-08-07T09:23:28;21.60;98.40
47514;DHT22;33951;51.988;5.910;2022-08-07T09:29:25;21.40;97.90
47514;DHT22;33951;51.988;5.910;2022-08-07T09:43:53;21.70;98.00
47514;DHT22;33951;51.988;5.910;2022-08-07T09:49:32;21.80;97.00
47514;DHT22;33951;51.988;5.910;2022-08-07T10:04:54;21.80;96.50
47514;DHT22;33951;51.988;5.910;2022-08-07T10:08:19;22.00;96.30
47514;DHT22;33951;51.988;5.910;2022-08-07T10:11:04;22.30;97.00
47514;DHT22;33951;51.988;5.910;2022-08-07T10:51:17;25.00;92.20
47514;DHT22;33951;51.988;5.910;2022-08-07T10:54:20;25.00;92.00
47514;DHT22;33951;51.988;5.910;2022-08-07T10:57:23;24.80;91.90
47514;DHT22;33951;51.988;5.910;2022-08-07T11:00:14;24.70;92.30
47514;DHT22;33951;51.988;5.910;2022-08-07T11:03:11;25.00;92.30
47514;DHT22;33951;51.988;5.910;2022-08-07T11:05:51;25.20;91.50
47514;DHT22;33951;51.988;5.910;2022-08-07T11:09:02;25.40;90.30
47514;DHT22;33951;51.988;5.910;2022-08-07T11:28:07;25.60;90.90
47514;DHT22;33951;51.988;5.910;2022-08-07T11:32:19;25.20;90.80
47514;DHT22;33951;51.988;5.910;2022-08-07T11:41:14;25.70;91.10
47514;DHT22;33951;51.988;5.910;2022-08-07T11:44:02;26.30;91.10
47514;DHT22;33951;51.988;5.910;2022-08-07T11:50:35;26.60;88.50
47514;DHT22;33951;51.988;5.910;2022-08-07T11:56:52;26.90;90.10
47514;DHT22;33951;51.988;5.910;2022-08-07T12:08:55;28.00;86.30
47514;DHT22;33951;51.988;5.910;2022-08-07T12:39:11;28.20;85.00
47514;DHT22;33951;51.988;5.910;2022-08-07T12:45:53;27.90;85.50
47514;DHT22;33951;51.988;5.910;2022-08-07T12:55:55;27.20;84.70
47514;DHT22;33951;51.988;5.910;2022-08-07T12:58:31;27.30;85.20
47514;DHT22;33951;51.988;5.910;2022-08-07T13:07:34;28.20;83.90
47514;DHT22;33951;51.988;5.910;2022-08-07T13:13:00;28.90;83.20
47514;DHT22;33951;51.988;5.910;2022-08-07T13:21:29;28.30;84.10
47514;DHT22;33951;51.988;5.910;2022-08-07T13:27:09;27.40;83.80
47514;DHT22;33951;51.988;5.910;2022-08-07T13:32:29;27.30;86.10
47514;DHT22;33951;51.988;5.910;2022-08-07T13:37:48;27.20;85.30
47514;DHT22;33951;51.988;5.910;2022-08-07T13:40:29;26.90;86.20
47514;DHT22;33951;51.988;5.910;2022-08-07T13:42:58;27.10;84.90
47514;DHT22;33951;51.988;5.910;2022-08-07T13:45:26;27.20;85.70
47514;DHT22;33951;51.988;5.910;2022-08-07T13:47:54;27.30;85.10
47514;DHT22;33951;51.988;5.910;2022-08-07T13:50:25;27.30;85.60
47514;DHT22;33951;51.988;5.910;2022-08-07T13:52:52;27.50;86.00
47514;DHT22;33951;51.988;5.910;2022-08-07T13:55:21;27.50;85.40
47514;DHT22;33951;51.988;5.910;2022-08-07T13:57:57;27.20;84.90
47514;DHT22;33951;51.988;5.910;2022-08-07T14:00:44;26.80;85.00
47514;DHT22;33951;51.988;5.910;2022-08-07T14:03:10;26.70;85.70
47514;DHT22;33951;51.988;5.910;2022-08-07T14:05:39;27.00;86.20
47514;DHT22;33951;51.988;5.910;2022-08-07T14:08:07;27.00;84.90
47514;DHT22;33951;51.988;5.910;2022-08-07T14:10:34;26.90;85.10
47514;DHT22;33951;51.988;5.910;2022-08-07T14:13:01;26.70;84.70
47514;DHT22;33951;51.988;5.910;2022-08-07T14:15:41;26.40;84.00
47514;DHT22;33951;51.988;5.910;2022-08-07T14:18:15;26.70;84.40
47514;DHT22;33951;51.988;5.910;2022-08-07T14:20:44;27.20;84.10
47514;DHT22;33951;51.988;5.910;2022-08-07T14:23:26;27.70;84.10
47514;DHT22;33951;51.988;5.910;2022-08-07T14:25:57;27.90;82.60
47514;DHT22;33951;51.988;5.910;2022-08-07T14:28:23;28.30;83.50
47514;DHT22;33951;51.988;5.910;2022-08-07T14:30:57;28.80;82.00
47514;DHT22;33951;51.988;5.910;2022-08-07T14:33:30;29.20;81.30
47514;DHT22;33951;51.988;5.910;2022-08-07T14:36:08;29.50;80.90
47514;DHT22;33951;51.988;5.910;2022-08-07T14:38:34;29.60;81.10
47514;DHT22;33951;51.988;5.910;2022-08-07T14:41:10;29.50;81.20
47514;DHT22;33951;51.988;5.910;2022-08-07T14:43:42;29.70;80.60
47514;DHT22;33951;51.988;5.910;2022-08-07T14:46:10;29.90;81.20
47514;DHT22;33951;51.988;5.910;2022-08-07T14:48:40;30.10;81.00
47514;DHT22;33951;51.988;5.910;2022-08-07T14:51:10;29.70;80.90
47514;DHT22;33951;51.988;5.910;2022-08-07T14:53:39;29.00;82.50
47514;DHT22;33951;51.988;5.910;2022-08-07T14:56:07;28.50;83.20
47514;DHT22;33951;51.988;5.910;2022-08-07T14:58:40;28.50;83.90
47514;DHT22;33951;51.988;5.910;2022-08-07T15:01:11;28.70;84.50
47514;DHT22;33951;51.988;5.910;2022-08-07T15:03:40;28.90;83.60
47514;DHT22;33951;51.988;5.910;2022-08-07T15:06:14;29.20;83.30
47514;DHT22;33951;51.988;5.910;2022-08-07T15:08:45;29.40;83.40
47514;DHT22;33951;51.988;5.910;2022-08-07T15:11:19;29.10;83.80
47514;DHT22;33951;51.988;5.910;2022-08-07T15:13:56;29.00;84.50
47514;DHT22;33951;51.988;5.910;2022-08-07T15:16:32;28.90;84.80
47514;DHT22;33951;51.988;5.910;2022-08-07T15:19:00;29.00;84.40
47514;DHT22;33951;51.988;5.910;2022-08-07T15:21:29;28.80;84.40
47514;DHT22;33951;51.988;5.910;2022-08-07T15:24:08;28.70;84.80
47514;DHT22;33951;51.988;5.910;2022-08-07T15:26:47;28.70;85.40
47514;DHT22;33951;51.988;5.910;2022-08-07T15:29:20;28.60;85.50
47514;DHT22;33951;51.988;5.910;2022-08-07T15:31:48;28.80;85.40
47514;DHT22;33951;51.988;5.910;2022-08-07T15:34:16;28.70;85.70
47514;DHT22;33951;51.988;5.910;2022-08-07T15:36:43;28.60;85.50
47514;DHT22;33951;51.988;5.910;2022-08-07T15:39:09;28.30;86.10
47514;DHT22;33951;51.988;5.910;2022-08-07T15:42:00;28.50;85.40
47514;DHT22;33951;51.988;5.910;2022-08-07T15:44:29;28.70;84.80
47514;DHT22;33951;51.988;5.910;2022-08-07T15:47:01;28.80;83.20
47514;DHT22;33951;51.988;5.910;2022-08-07T15:49:32;28.70;84.70
47514;DHT22;33951;51.988;5.910;2022-08-07T15:52:03;28.70;83.70
47514;DHT22;33951;51.988;5.910;2022-08-07T15:54:34;28.60;83.30
47514;DHT22;33951;51.988;5.910;2022-08-07T15:57:02;28.60;83.80
47514;DHT22;33951;51.988;5.910;2022-08-07T15:59:29;28.70;83.80
47514;DHT22;33951;51.988;5.910;2022-08-07T16:01:56;28.70;82.00
47514;DHT22;33951;51.988;5.910;2022-08-07T16:04:28;28.80;82.20
47514;DHT22;33951;51.988;5.910;2022-08-07T16:07:03;29.00;81.80
47514;DHT22;33951;51.988;5.910;2022-08-07T16:20:18;28.90;79.10
47514;DHT22;33951;51.988;5.910;2022-08-07T16:27:08;28.60;79.30
47514;DHT22;33951;51.988;5.910;2022-08-07T16:34:31;28.20;79.00
47514;DHT22;33951;51.988;5.910;2022-08-07T17:07:55;29.40;78.00
47514;DHT22;33951;51.988;5.910;2022-08-07T17:10:44;29.40;78.40
47514;DHT22;33951;51.988;5.910;2022-08-07T17:16:07;29.40;78.00
47514;DHT22;33951;51.988;5.910;2022-08-07T17:18:58;29.40;78.30
47514;DHT22;33951;51.988;5.910;2022-08-07T17:21:44;29.50;78.60
47514;DHT22;33951;51.988;5.910;2022-08-07T17:27:09;29.90;78.10
47514;DHT22;33951;51.988;5.910;2022-08-07T17:34:56;30.40;76.30
47514;DHT22;33951;51.988;5.910;2022-08-07T17:43:29;30.50;76.70
47514;DHT22;33951;51.988;5.910;2022-08-07T17:49:18;30.50;76.80
47514;DHT22;33951;51.988;5.910;2022-08-07T17:54:47;30.20;76.80
47514;DHT22;33951;51.988;5.910;2022-08-07T18:00:10;30.10;77.60
47514;DHT22;33951;51.988;5.910;2022-08-07T18:02:45;29.90;77.70
47514;DHT22;33951;51.988;5.910;2022-08-07T18:10:50;29.20;78.60
47514;DHT22;33951;51.988;5.910;2022-08-07T18:16:16;28.80;79.00
47514;DHT22;33951;51.988;5.910;2022-08-07T18:18:51;28.50;79.80
47514;DHT22;33951;51.988;5.910;2022-08-07T18:21:37;28.30;79.90
47514;DHT22;33951;51.988;5.910;2022-08-07T18:24:30;28.00;80.10
47514;DHT22;33951;51.988;5.910;2022-08-07T18:30:06;27.10;81.30
47514;DHT22;33951;51.988;5.910;2022-08-07T18:33:24;26.70;81.40
47514;DHT22;33951;51.988;5.910;2022-08-07T18:48:08;25.00;84.70
47514;DHT22;33951;51.988;5.910;2022-08-07T18:53:42;24.60;85.50
47514;DHT22;33951;51.988;5.910;2022-08-07T18:56:22;24.50;86.30
47514;DHT22;33951;51.988;5.910;2022-08-07T19:02:05;23.90;87.80
47514;DHT22;33951;51.988;5.910;2022-08-07T19:07:07;23.60;89.10
47514;DHT22;33951;51.988;5.910;2022-08-07T19:12:31;23.10;90.50
47514;DHT22;33951;51.988;5.910;2022-08-07T19:15:20;22.60;90.90
47514;DHT22;33951;51.988;5.910;2022-08-07T19:21:29;22.40;91.30
47514;DHT22;33951;51.988;5.910;2022-08-07T19:27:57;22.00;92.20
47514;DHT22;33951;51.988;5.910;2022-08-07T19:30:49;21.70;92.30
47514;DHT22;33951;51.988;5.910;2022-08-07T19:33:45;21.60;92.50
47514;DHT22;33951;51.988;5.910;2022-08-07T19:36:24;21.70;92.50
47514;DHT22;33951;51.988;5.910;2022-08-07T19:38:52;21.70;92.50
47514;DHT22;33951;51.988;5.910;2022-08-07T19:41:27;21.70;92.50
47514;DHT22;33951;51.988;5.910;2022-08-07T19:44:12;21.50;92.50
47514;DHT22;33951;51.988;5.910;2022-08-07T19:47:05;21.50;92.70
47514;DHT22;33951;51.988;5.910;2022-08-07T19:49:43;21.10;93.10
47514;DHT22;33951;51.988;5.910;2022-08-07T19:52:33;21.10;93.40
47514;DHT22;33951;51.988;5.910;2022-08-07T19:55:16;21.10;93.50
47514;DHT22;33951;51.988;5.910;2022-08-07T19:58:27;21.00;93.50
47514;DHT22;33951;51.988;5.910;2022-08-07T20:01:13;20.90;94.00
47514;DHT22;33951;51.988;5.910;2022-08-07T20:03:46;20.90;93.80
47514;DHT22;33951;51.988;5.910;2022-08-07T20:06:32;20.80;93.90
47514;DHT22;33951;51.988;5.910;2022-08-07T20:09:10;20.80;93.90
47514;DHT22;33951;51.988;5.910;2022-08-07T20:11:40;20.80;94.10
47514;DHT22;33951;51.988;5.910;2022-08-07T20:17:30;20.60;94.60
47514;DHT22;33951;51.988;5.910;2022-08-07T20:19:57;20.50;94.80
47514;DHT22;33951;51.988;5.910;2022-08-07T20:22:34;20.30;95.30
47514;DHT22;33951;51.988;5.910;2022-08-07T20:25:09;20.30;95.30
47514;DHT22;33951;51.988;5.910;2022-08-07T20:27:53;20.20;95.60
47514;DHT22;33951;51.988;5.910;2022-08-07T20:30:45;20.10;95.90
47514;DHT22;33951;51.988;5.910;2022-08-07T20:33:20;20.00;96.10
47514;DHT22;33951;51.988;5.910;2022-08-07T20:35:49;20.00;96.30
47514;DHT22;33951;51.988;5.910;2022-08-07T20:38:20;19.80;96.60
47514;DHT22;33951;51.988;5.910;2022-08-07T20:41:00;19.70;97.00
47514;DHT22;33951;51.988;5.910;2022-08-07T20:43:29;19.70;97.10
47514;DHT22;33951;51.988;5.910;2022-08-07T20:45:58;19.60;97.10
47514;DHT22;33951;51.988;5.910;2022-08-07T20:48:34;19.70;97.20
47514;DHT22;33951;51.988;5.910;2022-08-07T20:51:03;19.70;97.20
47514;DHT22;33951;51.988;5.910;2022-08-07T20:53:34;19.60;97.60
47514;DHT22;33951;51.988;5.910;2022-08-07T20:56:02;19.40;97.90
47514;DHT22;33951;51.988;5.910;2022-08-07T20:58:32;19.40;98.30
47514;DHT22;33951;51.988;5.910;2022-08-07T21:01:06;19.30;98.20
47514;DHT22;33951;51.988;5.910;2022-08-07T21:03:33;19.20;98.40
47514;DHT22;33951;51.988;5.910;2022-08-07T21:06:05;19.30;98.40
47514;DHT22;33951;51.988;5.910;2022-08-07T21:09:20;19.30;98.60
47514;DHT22;33951;51.988;5.910;2022-08-07T21:11:26;19.30;98.70
47514;DHT22;33951;51.988;5.910;2022-08-07T21:14:04;19.20;99.00
47514;DHT22;33951;51.988;5.910;2022-08-07T21:16:52;19.10;99.30
47514;DHT22;33951;51.988;5.910;2022-08-07T21:19:27;18.90;99.50
47514;DHT22;33951;51.988;5.910;2022-08-07T21:21:55;18.90;99.50
47514;DHT22;33951;51.988;5.910;2022-08-07T21:29:57;18.80;99.90
47514;DHT22;33951;51.988;5.910;2022-08-07T21:35:38;18.70;99.90
47514;DHT22;33951;51.988;5.910;2022-08-07T21:38:03;18.80;99.90
47514;DHT22;33951;51.988;5.910;2022-08-07T21:40:44;18.70;99.90
47514;DHT22;33951;51.988;5.910;2022-08-07T21:43:24;18.70;99.90
47514;DHT22;33951;51.988;5.910;2022-08-07T21:46:12;18.60;99.90
47514;DHT22;33951;51.988;5.910;2022-08-07T21:48:55;18.50;99.90
47514;DHT22;33951;51.988;5.910;2022-08-07T21:54:24;18.30;99.90
47514;DHT22;33951;51.988;5.910;2022-08-07T21:57:12;18.40;99.90
47514;DHT22;33951;51.988;5.910;2022-08-07T22:02:40;18.40;99.90
47514;DHT22;33951;51.988;5.910;2022-08-07T22:05:12;18.30;99.90
47514;DHT22;33951;51.988;5.910;2022-08-07T22:07:39;18.10;99.90
47514;DHT22;33951;51.988;5.910;2022-08-07T22:10:13;18.10;99.90
47514;DHT22;33951;51.988;5.910;2022-08-07T22:12:54;18.20;99.90
47514;DHT22;33951;51.988;5.910;2022-08-07T22:15:49;18.10;99.90
47514;DHT22;33951;51.988;5.910;2022-08-07T22:18:37;18.20;99.90
47514;DHT22;33951;51.988;5.910;2022-08-07T22:24:00;18.20;99.90
47514;DHT22;33951;51.988;5.910;2022-08-07T22:26:45;18.20;99.90
47514;DHT22;33951;51.988;5.910;2022-08-07T22:29:25;18.10;99.90
47514;DHT22;33951;51.988;5.910;2022-08-07T22:34:40;18.20;99.90
47514;DHT22;33951;51.988;5.910;2022-08-07T22:37:18;18.10;99.90
47514;DHT22;33951;51.988;5.910;2022-08-07T22:42:36;18.00;99.90
47514;DHT22;33951;51.988;5.910;2022-08-07T22:45:05;17.90;99.90
47514;DHT22;33951;51.988;5.910;2022-08-07T22:50:43;17.90;99.90
47514;DHT22;33951;51.988;5.910;2022-08-07T22:53:33;18.00;99.90
47514;DHT22;33951;51.988;5.910;2022-08-07T23:02:14;17.90;99.90
47514;DHT22;33951;51.988;5.910;2022-08-07T23:04:51;17.90;99.90
47514;DHT22;33951;51.988;5.910;2022-08-07T23:10:37;17.80;99.90
47514;DHT22;33951;51.988;5.910;2022-08-07T23:17:11;17.70;99.90
47514;DHT22;33951;51.988;5.910;2022-08-07T23:18:57;17.70;99.90
47514;DHT22;33951;51.988;5.910;2022-08-07T23:22:05;17.80;99.90
47514;DHT22;33951;51.988;5.910;2022-08-07T23:30:12;17.70;99.90
47514;DHT22;33951;51.988;5.910;2022-08-07T23:41:26;17.70;99.90
47514;DHT22;33951;51.988;5.910;2022-08-07T23:47:18;17.60;99.90
47514;DHT22;33951;51.988;5.910;2022-08-07T23:52:40;17.60;99.90
47514;DHT22;33951;51.988;5.910;2022-08-07T23:55:24;17.60;99.90
47514;DHT22;33951;51.988;5.910;2022-08-07T23:57:57;17.50;99.90
